Time;durP1;ratioP1;P1;durP2;ratioP2;P2;SDS_P1;SDS_P2;PMS_P1;PMS_P2;Temp;Humidity;BMP_temperature;BMP_pressure;BME280_temperature;BME280_humidity;BME280_pressure;Samples;Min_cycle;Max_cycle;Signal;HPM_P1;HPM_P2
2023/12/08 00:00:25;;;;;;;96.05;35.20;;;3.00;89.20;;;;;;2553115;28;20044;-81
2023/12/08 00:01:40;;;;;;;92.80;36.03;;;3.00;89.10;;;;;;2553236;28;20048;-81
2023/12/08 00:02:54;;;;;;;80.43;33.60;;;3.00;89.10;;;;;;2552850;28;20056;-81
2023/12/08 00:04:08;;;;;;;71.75;32.22;;;3.00;89.10;;;;;;2552512;28;20047;-81
2023/12/08 00:05:22;;;;;;;89.03;33.60;;;3.00;89.10;;;;;;2552979;28;20131;-81
2023/12/08 00:06:39;;;;;;;89.20;35.28;;;3.00;89.20;;;;;;2553081;28;20052;-81
2023/12/08 00:07:52;;;;;;;77.47;30.45;;;3.00;89.10;;;;;;2552825;28;20044;-81
2023/12/08 00:09:07;;;;;;;77.43;33.17;;;3.10;89.10;;;;;;2553135;28;20106;-81
2023/12/08 00:10:21;;;;;;;74.00;30.75;;;3.10;89.00;;;;;;2552504;28;20063;-81
2023/12/08 00:11:37;;;;;;;96.57;32.08;;;3.10;89.00;;;;;;2552148;28;20086;-81
2023/12/08 00:12:51;;;;;;;79.63;33.72;;;3.10;89.00;;;;;;2552926;28;20539;-81
2023/12/08 00:14:06;;;;;;;96.10;37.47;;;3.10;89.10;;;;;;2552818;28;20115;-81
2023/12/08 00:15:19;;;;;;;77.95;32.17;;;3.10;89.90;;;;;;2552203;28;20093;-80
2023/12/08 00:16:34;;;;;;;67.35;31.00;;;3.10;89.10;;;;;;2552842;28;20052;-81
2023/12/08 00:17:48;;;;;;;81.78;32.05;;;3.10;89.10;;;;;;2552640;28;20522;-80
2023/12/08 00:19:02;;;;;;;83.63;32.47;;;3.10;89.10;;;;;;2565516;22;20052;-79
2023/12/08 00:20:16;;;;;;;69.35;32.00;;;3.20;89.20;;;;;;2536949;28;20075;-78
2023/12/08 00:21:30;;;;;;;73.95;32.60;;;3.20;89.10;;;;;;2541699;28;20056;-79
2023/12/08 00:22:46;;;;;;;76.28;30.73;;;3.20;89.10;;;;;;2533542;28;20045;-79
2023/12/08 00:24:00;;;;;;;67.10;30.45;;;3.20;89.10;;;;;;2538876;28;20053;-78
2023/12/08 00:25:15;;;;;;;63.97;31.67;;;3.30;89.10;;;;;;2532010;28;20045;-79
2023/12/08 00:26:28;;;;;;;74.45;29.95;;;3.30;89.00;;;;;;2538766;28;20037;-78
2023/12/08 00:27:43;;;;;;;70.55;33.42;;;3.30;88.80;;;;;;2541199;28;20065;-78
2023/12/08 00:28:57;;;;;;;75.65;32.88;;;3.30;88.70;;;;;;2534304;28;20245;-79
2023/12/08 00:30:12;;;;;;;80.20;33.42;;;3.30;88.60;;;;;;2541805;28;20539;-79
2023/12/08 00:31:26;;;;;;;77.28;34.35;;;3.30;88.60;;;;;;2541793;28;20466;-78
2023/12/08 00:32:41;;;;;;;80.70;36.92;;;3.30;88.60;;;;;;2542176;28;20079;-81
2023/12/08 00:33:55;;;;;;;78.55;34.67;;;3.30;88.70;;;;;;2542066;28;20049;-78
2023/12/08 00:35:09;;;;;;;76.50;35.63;;;3.40;88.70;;;;;;2537601;28;20038;-79
2023/12/08 00:36:23;;;;;;;78.70;34.45;;;3.40;88.80;;;;;;2537762;28;20056;-76
2023/12/08 00:37:38;;;;;;;69.22;33.03;;;3.30;88.70;;;;;;2541819;28;20053;-79
2023/12/08 00:38:54;;;;;;;78.47;35.25;;;3.40;88.80;;;;;;2541333;28;20049;-78
2023/12/08 00:40:11;;;;;;;75.25;36.28;;;3.40;88.80;;;;;;2541106;28;20598;-79
2023/12/08 00:41:25;;;;;;;75.70;33.88;;;3.40;88.80;;;;;;2541923;28;20088;-78
2023/12/08 00:42:40;;;;;;;80.20;35.10;;;3.40;88.70;;;;;;2541973;28;20045;-79
2023/12/08 00:43:54;;;;;;;81.00;34.10;;;3.40;88.70;;;;;;2533435;28;20049;-79
2023/12/08 00:45:09;;;;;;;74.70;31.15;;;3.30;88.60;;;;;;2542041;28;20045;-79
2023/12/08 00:46:23;;;;;;;78.65;33.55;;;3.40;88.80;;;;;;2542212;28;20509;-79
2023/12/08 00:47:38;;;;;;;70.10;32.47;;;3.40;88.80;;;;;;2542312;28;20049;-79
2023/12/08 00:48:51;;;;;;;69.60;32.75;;;3.40;88.90;;;;;;2544420;28;20049;-80
2023/12/08 00:50:08;;;;;;;77.03;36.58;;;3.40;88.80;;;;;;2543864;28;20039;-78
2023/12/08 00:51:21;;;;;;;75.43;33.17;;;3.30;88.80;;;;;;2543243;28;20049;-79
2023/12/08 00:52:37;;;;;;;75.40;35.58;;;3.30;88.80;;;;;;2543773;28;20606;-78
2023/12/08 00:53:50;;;;;;;83.25;33.40;;;3.40;88.90;;;;;;2543598;28;20060;-79
2023/12/08 00:55:07;;;;;;;71.50;28.90;;;3.40;88.90;;;;;;2543276;28;20418;-79
2023/12/08 00:56:21;;;;;;;75.50;32.55;;;3.40;89.00;;;;;;2543856;28;20055;-79
2023/12/08 00:57:36;;;;;;;61.33;29.50;;;3.40;89.00;;;;;;2543645;28;20048;-78
2023/12/08 00:58:50;;;;;;;71.38;30.45;;;3.40;89.00;;;;;;2543168;28;20049;-79
2023/12/08 01:00:05;;;;;;;64.07;30.40;;;3.40;89.00;;;;;;2543040;28;20516;-79
2023/12/08 01:01:19;;;;;;;68.40;29.35;;;3.40;88.90;;;;;;2543563;28;20047;-79
2023/12/08 01:02:34;;;;;;;68.57;32.47;;;3.50;88.90;;;;;;2543656;28;20395;-79
2023/12/08 01:03:48;;;;;;;77.90;31.85;;;3.50;88.90;;;;;;2543368;28;20052;-79
2023/12/08 01:05:03;;;;;;;66.97;34.78;;;3.50;88.90;;;;;;2543922;28;20502;-79
2023/12/08 01:06:16;;;;;;;76.20;34.05;;;3.50;88.80;;;;;;2543826;28;20048;-79
2023/12/08 01:07:31;;;;;;;75.45;30.60;;;3.50;88.80;;;;;;2543327;28;20086;-79
2023/12/08 01:08:45;;;;;;;82.05;33.95;;;3.50;88.70;;;;;;2543546;28;20537;-78
2023/12/08 01:10:00;;;;;;;85.82;33.65;;;3.50;88.60;;;;;;2543702;28;20051;-79
2023/12/08 01:11:15;;;;;;;63.58;30.73;;;3.50;88.60;;;;;;2543213;28;20045;-79
2023/12/08 01:12:29;;;;;;;64.50;32.08;;;3.50;88.60;;;;;;2543752;28;20053;-79
2023/12/08 01:13:43;;;;;;;80.88;35.58;;;3.50;88.60;;;;;;2543432;28;20413;-80
2023/12/08 01:14:58;;;;;;;68.40;30.90;;;3.50;88.60;;;;;;2542687;28;20049;-78
2023/12/08 01:16:11;;;;;;;72.68;31.60;;;3.50;88.50;;;;;;2543715;28;20045;-79
2023/12/08 01:17:26;;;;;;;69.97;31.52;;;3.50;88.60;;;;;;2543465;28;20037;-79
2023/12/08 01:18:40;;;;;;;71.75;33.03;;;3.50;88.50;;;;;;2543972;28;20763;-77
2023/12/08 01:19:54;;;;;;;71.45;33.38;;;3.50;88.50;;;;;;2544552;28;20045;-78
2023/12/08 01:21:09;;;;;;;73.32;34.47;;;3.50;88.50;;;;;;2544680;28;20049;-78
2023/12/08 01:22:27;;;;;;;70.00;31.77;;;3.50;88.50;;;;;;2543750;28;20041;-78
2023/12/08 01:23:41;;;;;;;63.72;30.67;;;3.50;88.50;;;;;;2542968;28;20049;-79
2023/12/08 01:24:55;;;;;;;71.45;33.60;;;3.50;88.50;;;;;;2543656;28;20049;-79
2023/12/08 01:26:09;;;;;;;70.60;36.05;;;3.50;88.40;;;;;;2543572;28;20048;-78
2023/12/08 01:27:25;;;;;;;68.88;30.95;;;3.50;88.40;;;;;;2543260;28;20041;-78
2023/12/08 01:28:39;;;;;;;60.53;29.23;;;3.50;88.40;;;;;;2543448;28;20442;-79
2023/12/08 01:29:53;;;;;;;75.25;30.08;;;3.50;88.30;;;;;;2543518;28;20049;-80
2023/12/08 01:31:07;;;;;;;78.47;32.05;;;3.50;88.20;;;;;;2542969;28;20072;-78
2023/12/08 01:32:22;;;;;;;69.70;31.77;;;3.50;88.10;;;;;;2543262;28;20037;-80
2023/12/08 01:33:35;;;;;;;67.20;34.10;;;3.50;88.10;;;;;;2540219;28;20053;-78
2023/12/08 01:34:50;;;;;;;81.75;35.67;;;3.40;88.20;;;;;;2542633;28;20052;-79
2023/12/08 01:36:04;;;;;;;81.63;32.00;;;3.40;88.20;;;;;;2542893;28;20103;-78
2023/12/08 01:37:19;;;;;;;82.55;35.65;;;3.40;88.20;;;;;;2542760;28;20045;-78
2023/12/08 01:38:33;;;;;;;78.32;34.47;;;3.40;88.20;;;;;;2542324;28;20529;-80
2023/12/08 01:39:48;;;;;;;77.70;31.33;;;3.40;88.20;;;;;;2542281;28;20048;-79
2023/12/08 01:41:02;;;;;;;80.45;33.38;;;3.30;88.10;;;;;;2543019;28;20076;-79
2023/12/08 01:42:17;;;;;;;76.13;31.73;;;3.30;88.20;;;;;;2542954;28;20044;-79
2023/12/08 01:43:32;;;;;;;65.53;34.05;;;3.30;88.30;;;;;;2541985;28;20065;-79
2023/12/08 01:44:47;;;;;;;72.35;34.22;;;3.30;88.40;;;;;;2542720;28;20049;-78
2023/12/08 01:46:00;;;;;;;81.45;35.13;;;3.30;88.40;;;;;;2543354;28;20053;-79
2023/12/08 01:47:16;;;;;;;74.57;33.67;;;3.30;88.50;;;;;;2542634;28;20494;-79
2023/12/08 01:48:30;;;;;;;75.22;31.15;;;3.30;88.70;;;;;;2543287;28;20045;-78
2023/12/08 01:49:45;;;;;;;76.70;34.55;;;3.30;88.70;;;;;;2543269;28;20125;-78
2023/12/08 01:50:59;;;;;;;77.80;33.03;;;3.30;88.80;;;;;;2542804;28;20049;-78
2023/12/08 01:52:22;;;;;;;73.65;33.95;;;3.30;88.80;;;;;;2543174;28;20041;-78
2023/12/08 01:53:36;;;;;;;74.63;37.33;;;3.30;88.90;;;;;;2542795;28;20053;-79
2023/12/08 01:54:55;;;;;;;83.13;37.50;;;3.30;88.80;;;;;;2543121;28;20438;-79
2023/12/08 01:56:11;;;;;;;75.70;32.67;;;3.30;88.90;;;;;;2542872;28;20431;-79
2023/12/08 01:57:26;;;;;;;81.78;33.88;;;3.30;89.00;;;;;;2542922;28;20037;-78
2023/12/08 01:58:42;;;;;;;84.82;35.45;;;3.30;89.00;;;;;;2543039;28;20048;-78
2023/12/08 01:59:58;;;;;;;75.95;35.67;;;3.30;89.10;;;;;;2541721;28;20516;-79
2023/12/08 02:01:11;;;;;;;83.22;36.22;;;3.30;89.10;;;;;;2543171;28;20059;-79
2023/12/08 02:02:26;;;;;;;82.97;37.22;;;3.30;89.20;;;;;;2543254;28;20037;-79
2023/12/08 02:03:40;;;;;;;80.45;31.25;;;3.40;89.30;;;;;;2542691;28;20445;-78
2023/12/08 02:04:58;;;;;;;79.35;34.78;;;3.40;90.00;;;;;;2543262;28;20049;-78
2023/12/08 02:06:12;;;;;;;77.35;33.97;;;3.40;89.20;;;;;;2543140;28;20079;-79
2023/12/08 02:07:27;;;;;;;74.85;31.40;;;3.40;89.20;;;;;;2542586;28;20032;-79
2023/12/08 02:08:41;;;;;;;72.75;30.60;;;3.40;89.90;;;;;;2543127;28;20053;-78
2023/12/08 02:09:56;;;;;;;77.93;31.70;;;3.40;89.10;;;;;;2542709;28;20049;-79
2023/12/08 02:11:10;;;;;;;83.55;32.47;;;3.40;89.70;;;;;;2542496;28;20494;-80
2023/12/08 02:12:24;;;;;;;78.75;31.85;;;3.40;89.00;;;;;;2543042;28;20051;-79
2023/12/08 02:13:38;;;;;;;74.95;32.58;;;3.40;88.80;;;;;;2543034;28;20045;-79
2023/12/08 02:14:55;;;;;;;72.43;34.58;;;3.40;88.80;;;;;;2542938;28;20499;-78
2023/12/08 02:16:16;;;;;;;81.60;31.95;;;3.40;88.80;;;;;;2532670;28;20398;-78
2023/12/08 02:17:38;;;;;;;80.45;33.40;;;3.40;88.90;;;;;;2532965;28;20133;-79
2023/12/08 02:18:52;;;;;;;72.03;33.22;;;3.40;89.70;;;;;;2532556;28;20079;-80
2023/12/08 02:20:09;;;;;;;67.80;30.65;;;3.40;89.10;;;;;;2532313;28;20045;-79
2023/12/08 02:21:23;;;;;;;75.15;30.00;;;3.40;89.10;;;;;;2532669;28;20433;-78
2023/12/08 02:22:38;;;;;;;80.88;33.92;;;3.40;89.10;;;;;;2532859;28;20406;-78
2023/12/08 02:23:53;;;;;;;65.75;32.60;;;3.40;89.00;;;;;;2532315;28;20076;-80
2023/12/08 02:25:08;;;;;;;68.88;31.42;;;3.40;89.00;;;;;;2532751;28;20053;-79
2023/12/08 02:26:22;;;;;;;65.45;33.40;;;3.40;89.00;;;;;;2532989;28;20077;-79
2023/12/08 02:27:37;;;;;;;77.20;30.15;;;3.40;89.00;;;;;;2532410;28;20398;-78
2023/12/08 02:28:51;;;;;;;66.75;29.23;;;3.40;89.00;;;;;;2532739;28;20697;-78
2023/12/08 02:30:07;;;;;;;73.47;29.83;;;3.40;89.00;;;;;;2532578;28;20045;-78
2023/12/08 02:31:25;;;;;;;66.88;33.40;;;3.40;89.10;;;;;;2532024;28;20045;-78
2023/12/08 02:32:45;;;;;;;70.88;29.35;;;3.40;89.10;;;;;;2532806;28;20041;-79
2023/12/08 02:34:00;;;;;;;70.80;30.50;;;3.40;89.20;;;;;;2532883;28;20486;-79
2023/12/08 02:35:18;;;;;;;67.63;31.58;;;3.40;89.10;;;;;;2533111;28;20041;-80
2023/12/08 02:36:34;;;;;;;68.40;31.55;;;3.40;89.10;;;;;;2533013;28;20041;-79
2023/12/08 02:37:51;;;;;;;66.18;30.88;;;3.40;89.10;;;;;;2532901;28;20636;-79
2023/12/08 02:39:08;;;;;;;63.72;33.20;;;3.40;89.10;;;;;;2532455;28;20485;-78
2023/12/08 02:40:23;;;;;;;77.90;29.98;;;3.40;89.10;;;;;;2532663;28;20057;-79
2023/12/08 02:41:37;;;;;;;69.05;28.95;;;3.40;89.00;;;;;;2533129;28;20060;-78
2023/12/08 02:42:52;;;;;;;83.15;33.72;;;3.40;88.80;;;;;;2532643;28;20049;-79
2023/12/08 02:44:05;;;;;;;59.05;30.27;;;3.40;88.80;;;;;;2524708;28;20061;-79
2023/12/08 02:45:20;;;;;;;73.20;31.05;;;3.30;88.80;;;;;;2532859;28;20041;-79
2023/12/08 02:46:34;;;;;;;65.03;29.33;;;3.30;88.80;;;;;;2533206;28;20053;-80
2023/12/08 02:47:48;;;;;;;75.57;31.35;;;3.20;88.80;;;;;;2532484;28;20525;-80
2023/12/08 02:49:02;;;;;;;73.38;30.63;;;3.20;88.80;;;;;;2532000;28;20540;-79
2023/12/08 02:50:17;;;;;;;66.55;31.92;;;3.20;88.90;;;;;;2532261;28;20041;-79
2023/12/08 02:51:31;;;;;;;68.30;28.63;;;3.10;88.80;;;;;;2532360;28;20049;-79
2023/12/08 02:52:45;;;;;;;68.13;31.40;;;3.10;89.00;;;;;;2532981;28;20414;-80
2023/12/08 02:53:59;;;;;;;69.18;31.92;;;3.10;89.10;;;;;;2533216;28;20080;-80
2023/12/08 02:55:15;;;;;;;71.10;30.77;;;3.10;89.20;;;;;;2535747;28;20041;-80
2023/12/08 02:56:29;;;;;;;85.40;35.15;;;3.10;89.40;;;;;;2532835;28;20049;-79
2023/12/08 02:57:43;;;;;;;76.35;29.77;;;3.10;89.50;;;;;;2532479;28;20489;-80
2023/12/08 02:58:57;;;;;;;77.97;33.95;;;3.10;90.10;;;;;;2531774;28;20049;-80
2023/12/08 03:00:12;;;;;;;79.28;32.25;;;3.20;89.70;;;;;;2532724;28;20041;-79
2023/12/08 03:01:26;;;;;;;71.82;29.90;;;3.20;89.70;;;;;;2533191;28;20045;-79
2023/12/08 03:02:41;;;;;;;66.93;31.77;;;3.20;89.70;;;;;;2532490;28;20413;-78
2023/12/08 03:03:54;;;;;;;78.55;33.88;;;3.20;89.70;;;;;;2531864;28;20045;-80
2023/12/08 03:05:10;;;;;;;79.97;31.45;;;3.30;89.70;;;;;;2532736;28;20540;-76
2023/12/08 03:06:23;;;;;;;69.15;30.80;;;3.30;89.70;;;;;;2532633;28;20073;-79
2023/12/08 03:07:38;;;;;;;80.18;33.15;;;3.30;89.70;;;;;;2531766;28;20050;-78
2023/12/08 03:08:52;;;;;;;77.10;32.55;;;3.30;89.60;;;;;;2532280;28;20056;-78
2023/12/08 03:10:08;;;;;;;72.00;32.47;;;3.30;89.50;;;;;;2532436;28;20049;-78
2023/12/08 03:11:23;;;;;;;85.07;36.65;;;3.30;89.40;;;;;;2530893;28;20052;-78
2023/12/08 03:12:37;;;;;;;74.90;32.15;;;3.40;89.50;;;;;;2532414;28;20053;-79
2023/12/08 03:13:51;;;;;;;77.28;31.00;;;3.30;89.40;;;;;;2532563;28;20056;-79
2023/12/08 03:15:07;;;;;;;82.95;35.75;;;3.40;89.50;;;;;;2532248;28;20046;-79
2023/12/08 03:16:21;;;;;;;83.47;33.95;;;3.40;89.50;;;;;;2532390;28;20063;-79
2023/12/08 03:17:37;;;;;;;72.45;34.88;;;3.40;89.60;;;;;;2532506;28;20045;-78
2023/12/08 03:18:50;;;;;;;76.05;32.20;;;3.40;89.60;;;;;;2532238;28;20418;-79
2023/12/08 03:20:06;;;;;;;69.47;32.00;;;3.40;89.50;;;;;;2531850;28;20041;-77
2023/12/08 03:21:21;;;;;;;75.15;32.40;;;3.40;89.40;;;;;;2532311;28;20491;-79
2023/12/08 03:22:36;;;;;;;74.93;30.95;;;3.40;89.40;;;;;;2532681;28;20046;-81
2023/12/08 03:23:50;;;;;;;75.57;32.55;;;3.40;89.40;;;;;;2532066;28;20052;-79
2023/12/08 03:25:05;;;;;;;67.53;26.83;;;3.40;89.50;;;;;;2531938;28;20418;-79
2023/12/08 03:26:19;;;;;;;66.13;30.35;;;3.40;89.60;;;;;;2532212;28;20045;-78
2023/12/08 03:27:35;;;;;;;72.90;29.70;;;3.50;89.70;;;;;;2531833;28;20423;-78
2023/12/08 03:28:49;;;;;;;64.82;30.75;;;3.50;89.70;;;;;;2532307;28;20053;-78
2023/12/08 03:30:04;;;;;;;61.65;30.38;;;3.50;89.60;;;;;;2532182;28;20049;-78
2023/12/08 03:31:22;;;;;;;66.18;29.67;;;3.50;89.40;;;;;;2531647;28;20041;-79
2023/12/08 03:32:37;;;;;;;68.65;29.85;;;3.40;89.30;;;;;;2532207;28;20426;-80
2023/12/08 03:33:51;;;;;;;62.30;29.58;;;3.40;89.30;;;;;;2532310;28;20052;-78
2023/12/08 03:35:06;;;;;;;64.85;31.08;;;3.40;89.40;;;;;;2531909;28;20508;-78
2023/12/08 03:36:20;;;;;;;66.03;29.00;;;3.40;89.50;;;;;;2532250;28;20395;-79
2023/12/08 03:37:35;;;;;;;64.85;29.20;;;3.40;89.50;;;;;;2532037;28;20049;-79
2023/12/08 03:38:49;;;;;;;73.97;34.03;;;3.40;89.40;;;;;;2532050;28;20049;-78
2023/12/08 03:40:04;;;;;;;76.57;30.95;;;3.40;89.30;;;;;;2531270;28;20045;-79
2023/12/08 03:41:18;;;;;;;74.93;31.92;;;3.40;89.10;;;;;;2532076;28;20049;-78
2023/12/08 03:42:36;;;;;;;62.55;28.60;;;3.30;88.90;;;;;;2532439;28;20045;-79
2023/12/08 03:43:50;;;;;;;69.03;32.45;;;3.30;88.70;;;;;;2531914;28;20061;-79
2023/12/08 03:45:06;;;;;;;68.15;29.35;;;3.20;88.70;;;;;;2524031;28;20041;-79
2023/12/08 03:46:20;;;;;;;72.45;30.50;;;3.20;88.80;;;;;;2531915;28;20509;-79
2023/12/08 03:47:35;;;;;;;86.47;32.60;;;3.20;88.80;;;;;;2531665;28;20060;-79
2023/12/08 03:48:49;;;;;;;75.50;32.72;;;3.10;88.80;;;;;;2532117;28;20061;-78
2023/12/08 03:50:04;;;;;;;90.28;34.50;;;3.10;88.90;;;;;;2531986;28;20639;-78
2023/12/08 03:51:18;;;;;;;81.40;33.83;;;3.10;89.10;;;;;;2531526;28;20503;-79
2023/12/08 03:52:33;;;;;;;86.22;35.60;;;3.10;89.30;;;;;;2532288;28;20052;-79
2023/12/08 03:53:46;;;;;;;94.68;35.45;;;3.10;89.40;;;;;;2532319;28;20049;-78
2023/12/08 03:55:01;;;;;;;95.18;33.17;;;3.10;89.50;;;;;;2531583;28;20051;-77
2023/12/08 03:56:15;;;;;;;74.43;33.03;;;3.10;89.50;;;;;;2531902;28;20080;-78
2023/12/08 03:57:30;;;;;;;92.82;32.47;;;3.10;89.60;;;;;;2532189;28;20041;-79
2023/12/08 03:58:45;;;;;;;98.10;34.00;;;3.10;89.50;;;;;;2532097;28;20077;-79
2023/12/08 04:00:00;;;;;;;106.28;32.92;;;3.10;89.60;;;;;;2531417;28;20053;-79
2023/12/08 04:01:16;;;;;;;84.97;36.35;;;3.10;89.60;;;;;;2531883;28;20046;-79
2023/12/08 04:02:31;;;;;;;86.72;34.78;;;3.10;89.70;;;;;;2531832;28;20048;-79
2023/12/08 04:03:44;;;;;;;84.40;34.55;;;3.10;89.70;;;;;;2531071;28;20049;-79
2023/12/08 04:04:59;;;;;;;90.03;33.90;;;3.20;89.80;;;;;;2531755;28;20405;-79
2023/12/08 04:06:13;;;;;;;86.88;33.95;;;3.10;89.70;;;;;;2532258;28;20041;-79
2023/12/08 04:07:28;;;;;;;84.32;33.47;;;3.20;89.70;;;;;;2531725;28;20037;-78
2023/12/08 04:08:42;;;;;;;86.18;33.88;;;3.10;89.50;;;;;;2532083;28;20054;-78
2023/12/08 04:09:56;;;;;;;90.43;35.53;;;3.10;89.50;;;;;;2531932;28;20045;-78
2023/12/08 04:11:10;;;;;;;85.30;33.03;;;3.10;89.50;;;;;;2531534;28;20046;-79
2023/12/08 04:12:25;;;;;;;80.00;32.38;;;3.00;89.60;;;;;;2532254;28;20044;-78
2023/12/08 04:13:39;;;;;;;89.85;34.90;;;3.00;89.80;;;;;;2532145;28;20050;-78
2023/12/08 04:14:55;;;;;;;89.90;35.00;;;3.00;90.00;;;;;;2532037;28;20132;-79
2023/12/08 04:16:09;;;;;;;81.25;32.17;;;3.00;90.00;;;;;;2531823;28;20053;-78
2023/12/08 04:17:24;;;;;;;80.25;31.98;;;3.00;90.00;;;;;;2532148;28;20037;-78
2023/12/08 04:18:37;;;;;;;85.60;32.90;;;3.00;90.10;;;;;;2531609;28;20049;-78
2023/12/08 04:19:52;;;;;;;88.65;32.05;;;3.00;90.20;;;;;;2531133;28;20096;-79
2023/12/08 04:21:06;;;;;;;85.75;35.60;;;3.00;90.20;;;;;;2523876;28;20053;-78
2023/12/08 04:22:21;;;;;;;90.57;33.10;;;3.10;90.30;;;;;;2532287;28;20045;-78
2023/12/08 04:23:34;;;;;;;85.18;34.85;;;3.10;90.30;;;;;;2533598;28;20041;-79
2023/12/08 04:24:49;;;;;;;80.75;33.55;;;3.10;90.30;;;;;;2533963;28;20103;-78
2023/12/08 04:26:06;;;;;;;78.07;32.53;;;3.10;90.30;;;;;;2533967;28;20053;-79
2023/12/08 04:27:21;;;;;;;84.43;33.60;;;3.10;90.30;;;;;;2533628;28;20053;-79
2023/12/08 04:28:35;;;;;;;74.35;31.95;;;3.20;90.40;;;;;;2533750;28;20506;-79
2023/12/08 04:29:49;;;;;;;85.20;32.92;;;3.20;90.40;;;;;;2534271;28;20041;-79
2023/12/08 04:31:04;;;;;;;83.07;32.67;;;3.20;90.40;;;;;;2533294;28;20041;-79
2023/12/08 04:32:19;;;;;;;80.38;31.48;;;3.30;90.40;;;;;;2534749;28;20045;-77
2023/12/08 04:33:33;;;;;;;79.07;33.38;;;3.30;90.40;;;;;;2534063;28;20092;-78
2023/12/08 04:34:48;;;;;;;78.57;33.55;;;3.30;90.40;;;;;;2533923;28;20045;-78
2023/12/08 04:36:02;;;;;;;78.60;32.70;;;3.30;90.30;;;;;;2533068;28;20708;-78
2023/12/08 04:37:17;;;;;;;87.10;32.92;;;3.40;90.40;;;;;;2533785;28;20042;-78
2023/12/08 04:38:30;;;;;;;79.35;33.63;;;3.40;90.40;;;;;;2533923;28;20646;-78
2023/12/08 04:39:45;;;;;;;76.75;30.45;;;3.40;90.30;;;;;;2533379;28;20060;-78
2023/12/08 04:40:59;;;;;;;86.80;31.83;;;3.40;90.30;;;;;;2533542;28;20061;-79
2023/12/08 04:42:13;;;;;;;79.20;33.30;;;3.40;90.30;;;;;;2533980;28;20049;-78
2023/12/08 04:43:27;;;;;;;84.07;33.80;;;3.40;90.30;;;;;;2533407;28;20045;-78
2023/12/08 04:44:42;;;;;;;80.07;34.63;;;3.40;90.20;;;;;;2533863;28;20057;-79
2023/12/08 04:45:56;;;;;;;82.28;34.47;;;3.40;90.20;;;;;;2533766;28;20052;-78
2023/12/08 04:47:12;;;;;;;73.63;31.33;;;3.40;90.20;;;;;;2535500;28;20045;-79
2023/12/08 04:48:25;;;;;;;87.45;33.78;;;3.40;90.20;;;;;;2543960;28;20045;-78
2023/12/08 04:49:40;;;;;;;69.20;31.15;;;3.40;90.10;;;;;;2543875;28;20123;-78
2023/12/08 04:50:54;;;;;;;82.68;32.63;;;3.40;90.10;;;;;;2543826;28;20049;-77
2023/12/08 04:52:09;;;;;;;73.15;31.20;;;3.40;90.20;;;;;;2535131;28;20049;-78
2023/12/08 04:53:22;;;;;;;71.90;30.35;;;3.30;90.10;;;;;;2543782;28;20492;-78
2023/12/08 04:54:37;;;;;;;84.13;31.52;;;3.30;90.20;;;;;;2543196;28;20045;-78
2023/12/08 04:55:51;;;;;;;82.55;33.83;;;3.20;90.10;;;;;;2543430;28;20094;-79
2023/12/08 04:57:06;;;;;;;75.30;32.75;;;3.20;90.20;;;;;;2543782;28;20602;-78
2023/12/08 04:58:20;;;;;;;81.82;33.55;;;3.20;90.30;;;;;;2543795;28;20056;-78
2023/12/08 04:59:35;;;;;;;78.80;30.70;;;3.20;90.40;;;;;;2543137;28;20041;-78
2023/12/08 05:00:49;;;;;;;80.95;35.30;;;3.20;90.50;;;;;;2543584;28;20049;-77
2023/12/08 05:02:04;;;;;;;73.80;32.30;;;3.30;90.60;;;;;;2543660;28;20041;-78
2023/12/08 05:03:19;;;;;;;87.78;32.03;;;3.30;90.60;;;;;;2543211;28;20051;-78
2023/12/08 05:04:34;;;;;;;74.32;31.80;;;3.30;90.60;;;;;;2543841;28;20049;-79
2023/12/08 05:05:48;;;;;;;80.20;32.45;;;3.40;90.60;;;;;;2543636;28;20440;-79
2023/12/08 05:07:03;;;;;;;78.72;31.80;;;3.40;90.60;;;;;;2543124;28;20040;-78
2023/12/08 05:08:16;;;;;;;78.25;33.05;;;3.40;90.60;;;;;;2543702;28;20563;-78
2023/12/08 05:09:31;;;;;;;85.70;30.70;;;3.40;90.60;;;;;;2543585;28;20053;-78
2023/12/08 05:10:45;;;;;;;78.05;32.20;;;3.50;90.60;;;;;;2543485;28;20128;-78
2023/12/08 05:12:00;;;;;;;82.50;31.92;;;3.50;90.60;;;;;;2543059;28;20036;-78
2023/12/08 05:13:13;;;;;;;80.47;33.63;;;3.50;90.60;;;;;;2543529;28;20048;-79
2023/12/08 05:14:28;;;;;;;79.10;33.70;;;3.50;90.60;;;;;;2543077;28;20654;-78
2023/12/08 05:15:42;;;;;;;83.50;30.42;;;3.50;90.50;;;;;;2543089;28;20058;-79
2023/12/08 05:16:56;;;;;;;81.00;33.47;;;3.50;90.50;;;;;;2543503;28;20056;-80
2023/12/08 05:18:10;;;;;;;70.20;30.30;;;3.50;90.40;;;;;;2535367;28;20418;-78
2023/12/08 05:19:26;;;;;;;83.22;31.88;;;3.50;90.40;;;;;;2542758;28;20043;-78
2023/12/08 05:20:40;;;;;;;84.68;33.58;;;3.50;90.50;;;;;;2543396;28;20044;-78
2023/12/08 05:21:56;;;;;;;82.88;32.50;;;3.60;90.50;;;;;;2543349;28;20044;-78
2023/12/08 05:23:10;;;;;;;69.38;32.08;;;3.50;90.50;;;;;;2534892;28;20109;-78
2023/12/08 05:24:24;;;;;;;82.28;34.42;;;3.60;90.60;;;;;;2543570;28;20059;-77
2023/12/08 05:25:38;;;;;;;81.25;30.65;;;3.60;90.60;;;;;;2543500;28;20053;-78
2023/12/08 05:26:53;;;;;;;88.45;32.92;;;3.60;90.60;;;;;;2543384;28;20044;-79
2023/12/08 05:28:06;;;;;;;82.43;32.20;;;3.60;90.60;;;;;;2542819;28;20045;-78
2023/12/08 05:29:21;;;;;;;74.07;32.15;;;3.60;90.60;;;;;;2543240;28;20053;-78
2023/12/08 05:30:35;;;;;;;78.07;29.63;;;3.60;90.60;;;;;;2543341;28;20049;-78
2023/12/08 05:31:50;;;;;;;80.22;29.90;;;3.60;90.60;;;;;;2542703;28;20099;-78
2023/12/08 05:33:04;;;;;;;84.63;31.75;;;3.60;90.60;;;;;;2542843;28;20049;-78
2023/12/08 05:34:18;;;;;;;81.13;32.17;;;3.60;90.60;;;;;;2542330;28;20672;-78
2023/12/08 05:35:33;;;;;;;79.70;29.42;;;3.60;90.50;;;;;;2542777;28;20041;-78
2023/12/08 05:36:47;;;;;;;80.57;30.13;;;3.70;90.50;;;;;;2543420;28;20049;-78
2023/12/08 05:38:02;;;;;;;85.60;35.05;;;3.70;90.50;;;;;;2543213;28;20395;-77
2023/12/08 05:39:16;;;;;;;90.35;35.28;;;3.70;90.50;;;;;;2542742;28;20048;-79
2023/12/08 05:40:31;;;;;;;85.43;34.13;;;3.70;90.50;;;;;;2543219;28;20072;-78
2023/12/08 05:41:45;;;;;;;73.18;33.40;;;3.70;90.50;;;;;;2543246;28;20045;-78
2023/12/08 05:42:59;;;;;;;83.18;32.85;;;3.70;90.50;;;;;;2542813;28;20127;-79
2023/12/08 05:44:15;;;;;;;80.60;30.23;;;3.70;90.60;;;;;;2543388;28;20053;-78
2023/12/08 05:45:29;;;;;;;74.18;33.40;;;3.70;90.90;;;;;;2543163;28;20037;-79
2023/12/08 05:46:43;;;;;;;81.50;32.55;;;3.70;90.50;;;;;;2543211;28;20079;-78
2023/12/08 05:47:57;;;;;;;74.25;33.38;;;3.70;90.50;;;;;;2542603;28;20052;-78
2023/12/08 05:49:12;;;;;;;80.90;30.45;;;3.70;90.50;;;;;;2543172;28;20055;-77
2023/12/08 05:50:25;;;;;;;68.38;30.83;;;3.70;90.50;;;;;;2542814;28;20045;-78
2023/12/08 05:51:41;;;;;;;70.25;28.75;;;3.70;90.60;;;;;;2542477;28;20043;-78
2023/12/08 05:52:56;;;;;;;81.32;29.67;;;3.70;90.60;;;;;;2543179;28;20048;-78
2023/12/08 05:54:11;;;;;;;76.32;33.45;;;3.70;90.60;;;;;;2542882;28;20147;-78
2023/12/08 05:55:25;;;;;;;69.70;30.90;;;3.70;90.60;;;;;;2542575;28;20454;-76
2023/12/08 05:56:40;;;;;;;74.68;28.92;;;3.70;90.60;;;;;;2543046;28;20045;-75
2023/12/08 05:57:54;;;;;;;60.55;29.15;;;3.70;90.60;;;;;;2543060;28;20072;-76
2023/12/08 05:59:08;;;;;;;71.00;31.75;;;3.80;90.70;;;;;;2542533;28;20052;-78
2023/12/08 06:00:25;;;;;;;82.10;29.48;;;3.80;90.70;;;;;;2542992;28;20049;-78
2023/12/08 06:01:40;;;;;;;62.78;29.95;;;3.80;90.70;;;;;;2543103;28;20129;-79
2023/12/08 06:02:53;;;;;;;75.38;33.20;;;3.80;90.70;;;;;;2543306;28;20053;-79
2023/12/08 06:04:08;;;;;;;77.97;32.42;;;3.80;90.60;;;;;;2542624;28;20493;-79
2023/12/08 06:05:22;;;;;;;65.45;32.90;;;3.80;90.60;;;;;;2543142;28;20464;-78
2023/12/08 06:06:36;;;;;;;72.68;30.27;;;3.80;90.60;;;;;;2543447;28;20052;-78
2023/12/08 06:07:51;;;;;;;60.17;29.30;;;3.80;90.60;;;;;;2543453;28;20044;-78
2023/12/08 06:09:07;;;;;;;61.53;29.58;;;3.80;90.60;;;;;;2543329;28;20053;-78
2023/12/08 06:10:22;;;;;;;68.82;29.75;;;3.90;90.70;;;;;;2543453;28;20056;-77
2023/12/08 06:11:37;;;;;;;64.57;28.33;;;3.90;90.70;;;;;;2542611;28;20116;-76
2023/12/08 06:12:52;;;;;;;63.72;29.63;;;3.90;90.70;;;;;;2543726;28;20057;-77
2023/12/08 06:14:07;;;;;;;68.90;30.75;;;3.90;90.60;;;;;;2543061;28;20110;-78
2023/12/08 06:15:21;;;;;;;62.10;29.52;;;3.90;90.60;;;;;;2542743;28;20040;-79
2023/12/08 06:16:36;;;;;;;63.55;27.67;;;3.90;90.60;;;;;;2543320;28;20045;-78
2023/12/08 06:17:50;;;;;;;57.17;31.10;;;4.00;90.60;;;;;;2543400;28;20052;-79
2023/12/08 06:19:05;;;;;;;63.55;28.95;;;3.90;90.60;;;;;;2542417;28;20048;-78
2023/12/08 06:20:18;;;;;;;60.65;28.73;;;4.00;90.60;;;;;;2543009;28;20085;-79
2023/12/08 06:21:33;;;;;;;62.10;30.65;;;4.00;90.60;;;;;;2543571;28;20047;-79
2023/12/08 06:22:47;;;;;;;60.90;29.15;;;4.00;90.60;;;;;;2545153;28;20083;-79